Time;durP1;ratioP1;P1;durP2;ratioP2;P2;SDS_P1;SDS_P2;PMS_P1;PMS_P2;Temp;Humidity;BMP_temperature;BMP_pressure;BME280_temperature;BME280_humidity;BME280_pressure;Samples;Min_cycle;Max_cycle;Signal;HPM_P1;HPM_P2
2023/04/03 00:01:14;;;;;;;7.32;2.30;;;2.90;99.90;;;;;;5032608;28;20478;-56
2023/04/03 00:03:41;;;;;;;11.93;5.20;;;2.90;99.90;;;;;;5032652;28;20033;-46
2023/04/03 00:06:08;;;;;;;13.23;7.43;;;2.80;99.90;;;;;;5032566;28;20385;-50
2023/04/03 00:08:34;;;;;;;15.15;6.05;;;2.80;99.90;;;;;;5032409;28;20021;-47
2023/04/03 00:11:01;;;;;;;12.43;4.35;;;2.80;99.90;;;;;;5032417;28;20041;-45
2023/04/03 00:13:26;;;;;;;10.55;3.28;;;2.80;99.90;;;;;;5032282;28;20041;-49
2023/04/03 00:15:53;;;;;;;11.63;3.70;;;2.80;99.90;;;;;;5032341;28;20017;-47
2023/04/03 00:18:18;;;;;;;7.40;3.47;;;2.80;99.90;;;;;;5032392;28;20048;-52
2023/04/03 00:20:44;;;;;;;5.30;2.05;;;2.70;99.90;;;;;;5032395;28;20026;-44
2023/04/03 00:23:10;;;;;;;10.90;2.63;;;2.70;99.90;;;;;;5042554;28;20092;-46
2023/04/03 00:25:36;;;;;;;7.20;2.15;;;2.70;99.90;;;;;;5044081;28;20369;-49
2023/04/03 00:28:03;;;;;;;6.57;1.80;;;2.70;99.90;;;;;;5052005;28;20025;-47
2023/04/03 00:30:29;;;;;;;7.03;2.13;;;2.60;99.90;;;;;;5051894;28;20068;-46
2023/04/03 00:32:55;;;;;;;10.60;2.25;;;2.60;99.90;;;;;;5051914;28;20060;-51
2023/04/03 00:35:21;;;;;;;7.60;1.80;;;2.60;99.90;;;;;;5052076;28;20082;-45
2023/04/03 00:37:48;;;;;;;6.75;1.85;;;2.60;99.90;;;;;;5051539;28;20057;-52
2023/04/03 00:40:15;;;;;;;6.47;1.80;;;2.60;99.90;;;;;;5051582;28;20029;-49
2023/04/03 00:42:43;;;;;;;6.80;1.83;;;2.60;99.90;;;;;;5051703;28;20075;-49
2023/04/03 00:45:23;;;;;;;5.28;1.48;;;2.70;99.90;;;;;;5044798;28;20068;-47
2023/04/03 00:47:49;;;;;;;7.38;1.80;;;2.80;99.90;;;;;;5031672;28;20396;-49
2023/04/03 00:50:15;;;;;;;7.88;1.83;;;2.80;99.90;;;;;;5031703;28;20105;-45
2023/04/03 00:52:41;;;;;;;6.88;2.10;;;2.90;99.90;;;;;;5031371;28;20032;-47
2023/04/03 00:55:09;;;;;;;6.80;1.98;;;2.90;99.90;;;;;;5030409;28;20029;-51
2023/04/03 00:57:35;;;;;;;6.80;1.63;;;2.90;99.90;;;;;;5031446;28;20507;-45
2023/04/03 01:00:09;;;;;;;10.57;1.75;;;2.90;99.90;;;;;;5031675;28;20029;-48
2023/04/03 01:02:36;;;;;;;9.55;1.63;;;3.00;99.90;;;;;;5010847;28;20108;-48
2023/04/03 01:05:02;;;;;;;12.27;2.05;;;2.90;99.90;;;;;;5028156;28;20536;-51
2023/04/03 01:07:31;;;;;;;5.40;1.70;;;3.00;99.90;;;;;;5031363;28;20485;-50
2023/04/03 01:09:59;;;;;;;12.02;2.17;;;2.90;99.90;;;;;;5029784;28;20528;-51
2023/04/03 01:12:31;;;;;;;8.65;1.67;;;2.90;99.90;;;;;;5031550;28;20025;-48
2023/04/03 01:15:05;;;;;;;5.53;1.63;;;2.90;99.90;;;;;;5031242;28;20032;-49
2023/04/03 01:17:34;;;;;;;7.28;1.70;;;2.80;99.90;;;;;;5031105;28;20337;-45
2023/04/03 01:20:16;;;;;;;5.38;2.05;;;2.80;99.90;;;;;;5031265;28;20029;-45
2023/04/03 01:22:48;;;;;;;8.43;2.00;;;2.70;99.90;;;;;;5024316;28;20052;-45
2023/04/03 01:25:14;;;;;;;7.88;1.85;;;2.60;99.90;;;;;;5030837;28;20029;-45
2023/04/03 01:27:40;;;;;;;8.48;1.60;;;2.60;99.90;;;;;;5031240;28;20021;-46
2023/04/03 01:30:06;;;;;;;6.60;1.65;;;2.60;99.90;;;;;;5031212;28;20052;-51
2023/04/03 01:32:32;;;;;;;4.60;1.67;;;2.40;99.90;;;;;;5030882;28;20132;-48
2023/04/03 01:34:57;;;;;;;6.05;1.98;;;2.30;99.90;;;;;;5029594;28;20068;-50
2023/04/03 01:37:23;;;;;;;8.30;1.63;;;2.30;99.90;;;;;;5030570;28;20512;-47
2023/04/03 01:39:49;;;;;;;7.15;1.80;;;2.30;99.90;;;;;;5030924;28;20036;-49
2023/04/03 01:42:15;;;;;;;4.47;1.63;;;2.20;99.90;;;;;;5030653;28;20103;-45
2023/04/03 01:44:41;;;;;;;7.05;2.00;;;2.10;99.90;;;;;;5030806;28;20021;-44
2023/04/03 01:47:07;;;;;;;7.18;1.70;;;2.10;99.90;;;;;;5030525;28;20017;-49
2023/04/03 01:49:33;;;;;;;7.50;1.67;;;2.00;99.90;;;;;;5030757;28;20022;-51
2023/04/03 01:51:58;;;;;;;9.77;2.15;;;2.00;99.90;;;;;;5030626;28;20476;-45
2023/04/03 01:54:24;;;;;;;6.40;1.92;;;2.00;99.90;;;;;;5029971;28;20481;-45
2023/04/03 01:56:49;;;;;;;8.88;1.95;;;2.00;99.90;;;;;;5030757;28;20057;-52
2023/04/03 01:59:17;;;;;;;7.32;1.70;;;2.00;99.90;;;;;;5030799;28;20065;-46
2023/04/03 02:01:44;;;;;;;8.07;2.13;;;2.00;99.90;;;;;;5030733;28;20032;-48
2023/04/03 02:04:11;;;;;;;5.20;1.65;;;2.00;99.90;;;;;;5030649;28;20040;-50
2023/04/03 02:06:37;;;;;;;5.47;1.55;;;2.00;99.90;;;;;;5031557;28;20116;-45
2023/04/03 02:09:03;;;;;;;8.77;2.45;;;2.00;99.90;;;;;;5035076;28;20444;-56
2023/04/03 02:11:29;;;;;;;5.47;1.95;;;2.00;99.90;;;;;;5034436;28;20515;-49
2023/04/03 02:13:54;;;;;;;6.15;2.20;;;2.00;99.90;;;;;;5034524;28;20061;-44
2023/04/03 02:16:20;;;;;;;8.88;1.67;;;2.00;99.90;;;;;;5034371;28;20028;-45
2023/04/03 02:18:45;;;;;;;10.48;1.88;;;2.00;99.90;;;;;;5033391;28;20037;-47
2023/04/03 02:21:11;;;;;;;8.05;1.98;;;2.00;99.90;;;;;;5033705;28;20025;-48
2023/04/03 02:23:37;;;;;;;8.10;1.98;;;2.10;99.90;;;;;;5032029;28;20045;-45
2023/04/03 02:26:08;;;;;;;11.93;1.50;;;2.10;99.90;;;;;;5032514;28;20036;-50
2023/04/03 02:28:34;;;;;;;7.72;1.90;;;2.10;99.90;;;;;;5034339;28;20074;-53
2023/04/03 02:31:00;;;;;;;12.43;3.05;;;2.10;99.90;;;;;;5034507;28;20021;-46
2023/04/03 02:33:25;;;;;;;8.10;1.58;;;2.20;99.90;;;;;;5034248;28;20101;-48
2023/04/03 02:35:56;;;;;;;5.93;1.30;;;2.20;99.90;;;;;;5034008;28;20024;-47
2023/04/03 02:38:23;;;;;;;15.75;2.22;;;2.20;99.90;;;;;;5033999;28;20143;-57
2023/04/03 02:40:49;;;;;;;7.05;1.77;;;2.30;99.90;;;;;;5036976;28;20020;-43
2023/04/03 02:43:14;;;;;;;8.15;1.65;;;2.30;99.90;;;;;;5045609;28;20588;-44
2023/04/03 02:45:40;;;;;;;8.80;1.90;;;2.40;99.90;;;;;;5054041;28;20025;-45
2023/04/03 02:48:06;;;;;;;12.13;2.28;;;2.50;99.90;;;;;;5053774;28;20021;-44
2023/04/03 02:50:31;;;;;;;15.32;1.73;;;2.60;99.90;;;;;;5053977;28;20029;-49
2023/04/03 02:52:57;;;;;;;7.07;1.85;;;2.50;99.90;;;;;;5045356;28;20538;-47
2023/04/03 02:55:23;;;;;;;10.30;1.73;;;2.60;99.90;;;;;;5053325;28;20107;-51
2023/04/03 02:57:48;;;;;;;11.88;1.90;;;2.70;99.90;;;;;;5052335;28;20400;-50
2023/04/03 03:00:14;;;;;;;11.10;1.98;;;2.70;99.90;;;;;;5047676;28;20029;-49
2023/04/03 03:02:40;;;;;;;5.60;1.90;;;2.70;99.90;;;;;;5047810;28;20025;-51
2023/04/03 03:05:07;;;;;;;6.93;1.95;;;2.80;99.90;;;;;;5053799;28;20017;-53
2023/04/03 03:07:33;;;;;;;13.70;2.10;;;2.80;99.90;;;;;;5053326;28;20021;-49
2023/04/03 03:09:59;;;;;;;7.82;2.10;;;2.90;99.90;;;;;;5053603;28;20480;-50
2023/04/03 03:12:24;;;;;;;8.75;2.00;;;2.90;99.90;;;;;;5053525;28;20074;-50
2023/04/03 03:14:51;;;;;;;11.05;1.85;;;2.90;99.90;;;;;;5053523;28;20040;-50
2023/04/03 03:17:17;;;;;;;12.07;2.40;;;2.90;99.90;;;;;;5052507;28;20057;-48
2023/04/03 03:19:43;;;;;;;7.53;2.00;;;3.00;99.90;;;;;;5053528;28;20025;-50
2023/04/03 03:22:09;;;;;;;6.57;2.25;;;2.90;99.90;;;;;;5050691;28;20566;-49
2023/04/03 03:24:35;;;;;;;8.05;2.03;;;2.90;99.90;;;;;;5053385;28;20177;-45
2023/04/03 03:27:00;;;;;;;10.00;2.15;;;2.80;99.90;;;;;;5053067;28;20067;-46
2023/04/03 03:29:26;;;;;;;7.38;2.38;;;2.80;99.90;;;;;;5053214;28;20033;-54
2023/04/03 03:31:52;;;;;;;8.95;3.03;;;2.90;99.90;;;;;;5052982;28;20044;-46
2023/04/03 03:34:17;;;;;;;12.98;2.42;;;2.90;99.90;;;;;;5053204;28;20021;-52
2023/04/03 03:36:43;;;;;;;6.78;1.52;;;2.80;99.90;;;;;;5053019;28;20021;-47
2023/04/03 03:39:09;;;;;;;8.38;1.73;;;2.90;99.90;;;;;;5051695;28;20071;-49
2023/04/03 03:41:35;;;;;;;8.00;2.13;;;2.80;99.90;;;;;;5053038;28;20021;-49
2023/04/03 03:44:01;;;;;;;11.30;1.80;;;2.70;99.90;;;;;;5052721;28;20391;-52
2023/04/03 03:46:26;;;;;;;4.80;1.70;;;2.70;99.90;;;;;;5052966;28;20025;-45
2023/04/03 03:48:52;;;;;;;11.35;2.53;;;2.70;99.90;;;;;;5052694;28;20033;-46
2023/04/03 03:51:17;;;;;;;7.03;1.77;;;2.70;99.90;;;;;;5048937;28;20067;-50
2023/04/03 03:53:43;;;;;;;10.20;2.40;;;2.70;99.90;;;;;;5045561;28;20029;-49
2023/04/03 03:56:09;;;;;;;7.90;2.00;;;2.70;99.90;;;;;;5038722;28;20017;-48
2023/04/03 03:58:35;;;;;;;8.02;1.88;;;2.70;99.90;;;;;;5052514;28;20111;-45
2023/04/03 04:01:03;;;;;;;18.45;2.50;;;2.70;99.90;;;;;;5052801;28;20029;-45
2023/04/03 04:03:29;;;;;;;12.65;2.30;;;2.70;99.90;;;;;;5052651;28;20100;-49
2023/04/03 04:05:54;;;;;;;14.75;2.13;;;2.80;99.90;;;;;;5052696;28;20121;-45
2023/04/03 04:08:20;;;;;;;10.27;2.58;;;2.80;99.90;;;;;;5041166;28;20024;-46
2023/04/03 04:10:46;;;;;;;9.65;2.65;;;2.90;99.90;;;;;;5052394;28;20033;-49
2023/04/03 04:13:11;;;;;;;12.73;2.03;;;2.90;99.90;;;;;;5052246;28;20013;-51
2023/04/03 04:15:37;;;;;;;13.13;2.30;;;2.90;99.90;;;;;;5052270;28;20113;-47
2023/04/03 04:18:03;;;;;;;10.40;2.20;;;3.00;99.90;;;;;;5052257;28;20048;-45
2023/04/03 04:20:29;;;;;;;5.75;1.90;;;3.00;99.90;;;;;;5052400;28;20036;-45
2023/04/03 04:22:54;;;;;;;10.90;2.85;;;3.00;99.90;;;;;;5048488;28;20392;-44
2023/04/03 04:25:20;;;;;;;13.98;2.42;;;3.00;99.90;;;;;;5052183;28;20100;-44
2023/04/03 04:27:45;;;;;;;10.35;2.70;;;3.00;99.90;;;;;;5052025;28;20469;-45
2023/04/03 04:30:12;;;;;;;8.27;2.53;;;2.90;99.90;;;;;;5052084;28;20211;-46
2023/04/03 04:32:37;;;;;;;9.43;2.67;;;2.80;99.90;;;;;;5052121;28;20162;-44
2023/04/03 04:35:03;;;;;;;11.32;2.40;;;2.80;99.90;;;;;;5051882;28;20523;-45
2023/04/03 04:37:29;;;;;;;14.63;3.10;;;2.80;99.90;;;;;;5051769;28;20511;-46
2023/04/03 04:39:55;;;;;;;10.38;2.70;;;2.80;99.90;;;;;;5051881;28;20110;-44
2023/04/03 04:42:21;;;;;;;9.80;2.35;;;2.80;99.90;;;;;;5051666;28;20476;-44
2023/04/03 04:44:46;;;;;;;11.40;2.30;;;2.70;99.90;;;;;;5051992;28;20162;-44
2023/04/03 04:47:12;;;;;;;9.23;2.42;;;2.70;99.90;;;;;;5051552;28;20468;-45
2023/04/03 04:49:38;;;;;;;8.90;2.58;;;2.70;99.90;;;;;;5051767;28;20437;-47
2023/04/03 04:52:04;;;;;;;10.55;3.38;;;2.70;99.90;;;;;;5041597;28;20030;-52
2023/04/03 04:54:29;;;;;;;14.13;2.53;;;2.70;99.90;;;;;;5050655;28;20021;-46
2023/04/03 04:56:55;;;;;;;13.98;2.70;;;2.70;99.90;;;;;;5051498;28;20016;-46
2023/04/03 04:59:21;;;;;;;11.90;3.08;;;2.70;99.90;;;;;;5051353;28;20395;-48
2023/04/03 05:01:46;;;;;;;7.97;2.78;;;2.70;99.90;;;;;;5051671;28;20491;-53
2023/04/03 05:04:14;;;;;;;12.48;2.72;;;2.70;99.90;;;;;;5051406;28;20032;-47
2023/04/03 05:06:40;;;;;;;9.40;2.72;;;2.70;99.90;;;;;;5051427;28;20021;-47
2023/04/03 05:09:06;;;;;;;7.80;2.95;;;2.80;99.90;;;;;;5050071;28;20031;-55
2023/04/03 05:11:32;;;;;;;10.73;3.10;;;2.80;99.90;;;;;;5051121;28;20494;-45
2023/04/03 05:13:58;;;;;;;9.10;2.60;;;2.90;99.90;;;;;;5051464;28;20516;-48
2023/04/03 05:16:23;;;;;;;7.63;2.72;;;2.90;99.90;;;;;;5051216;28;20017;-45
2023/04/03 05:18:49;;;;;;;9.57;2.53;;;3.00;99.90;;;;;;5051177;28;20400;-45
2023/04/03 05:21:15;;;;;;;12.13;2.95;;;3.10;99.90;;;;;;5049657;28;20029;-45
2023/04/03 05:23:40;;;;;;;10.00;2.90;;;3.20;99.90;;;;;;5033639;28;20032;-49
2023/04/03 05:26:06;;;;;;;12.48;3.10;;;3.20;99.90;;;;;;5034625;28;20587;-47
2023/04/03 05:28:32;;;;;;;9.40;2.78;;;3.30;99.90;;;;;;5050357;28;20021;-46
2023/04/03 05:30:58;;;;;;;11.00;3.17;;;3.40;99.90;;;;;;5051242;28;20009;-54
2023/04/03 05:33:25;;;;;;;11.10;3.00;;;3.40;99.90;;;;;;5050147;28;20722;-48
2023/04/03 05:35:52;;;;;;;10.32;2.83;;;3.50;99.90;;;;;;5040780;28;20434;-47
2023/04/03 05:38:18;;;;;;;11.93;2.70;;;3.50;99.90;;;;;;5050380;28;20059;-45
2023/04/03 05:40:44;;;;;;;14.50;2.90;;;3.60;99.90;;;;;;5044521;28;20029;-53
2023/04/03 05:43:10;;;;;;;9.23;2.90;;;3.60;99.90;;;;;;5031652;28;20387;-50
2023/04/03 05:45:35;;;;;;;12.55;3.15;;;3.70;99.90;;;;;;5030693;28;20021;-47
2023/04/03 05:48:01;;;;;;;10.38;2.55;;;3.80;99.90;;;;;;5030692;28;20022;-47
2023/04/03 05:50:27;;;;;;;8.07;3.17;;;3.80;99.90;;;;;;5029350;28;20033;-55
2023/04/03 05:52:56;;;;;;;8.20;2.78;;;3.90;99.90;;;;;;5026380;28;20539;-45
2023/04/03 05:55:22;;;;;;;9.00;2.40;;;4.00;99.90;;;;;;5043037;28;20037;-48
2023/04/03 05:57:48;;;;;;;9.45;2.92;;;4.00;99.90;;;;;;5050511;28;20032;-45
2023/04/03 06:00:15;;;;;;;15.32;3.78;;;4.10;99.90;;;;;;5050612;28;20032;-44
2023/04/03 06:02:41;;;;;;;11.65;3.35;;;4.10;99.90;;;;;;5050552;28;20013;-50
2023/04/03 06:05:08;;;;;;;8.05;2.40;;;4.20;99.90;;;;;;5050491;28;20389;-47
2023/04/03 06:07:34;;;;;;;7.90;2.58;;;4.30;99.90;;;;;;5049048;28;20025;-47
2023/04/03 06:10:01;;;;;;;10.57;3.00;;;4.30;99.90;;;;;;5050396;28;20029;-52
2023/04/03 06:12:28;;;;;;;13.20;2.90;;;4.40;99.90;;;;;;5050627;28;20074;-47
2023/04/03 06:14:54;;;;;;;8.90;3.10;;;4.50;99.90;;;;;;5050331;28;20057;-47
2023/04/03 06:17:20;;;;;;;12.38;3.08;;;4.50;99.90;;;;;;5036788;28;20116;-55
2023/04/03 06:19:46;;;;;;;10.75;3.13;;;4.60;99.90;;;;;;5029889;28;20037;-47
2023/04/03 06:22:12;;;;;;;6.57;2.80;;;4.70;99.90;;;;;;5025635;28;20025;-47
2023/04/03 06:24:38;;;;;;;7.60;2.63;;;4.70;99.90;;;;;;5026907;28;20029;-54
2023/04/03 06:27:03;;;;;;;13.50;2.97;;;4.80;99.90;;;;;;5028048;28;20104;-48
2023/04/03 06:29:29;;;;;;;7.55;2.63;;;4.80;99.90;;;;;;5032147;28;20089;-50
2023/04/03 06:31:55;;;;;;;8.63;2.92;;;5.00;99.90;;;;;;5029828;28;20511;-53
2023/04/03 06:34:21;;;;;;;9.32;3.25;;;5.10;99.90;;;;;;5023866;28;20028;-46
2023/04/03 06:36:47;;;;;;;11.55;3.22;;;5.20;99.90;;;;;;5023897;28;20021;-55
2023/04/03 06:39:20;;;;;;;10.60;3.30;;;5.30;99.90;;;;;;5031147;28;20096;-47
2023/04/03 06:41:46;;;;;;;11.63;2.63;;;5.40;99.90;;;;;;5030178;28;20014;-45
2023/04/03 06:44:13;;;;;;;7.97;3.05;;;5.40;99.90;;;;;;5033635;28;20087;-53
2023/04/03 06:46:39;;;;;;;9.95;3.30;;;5.50;99.90;;;;;;5030133;28;20028;-47
2023/04/03 06:49:07;;;;;;;9.90;2.92;;;5.60;99.90;;;;;;5028836;28;20037;-52
2023/04/03 06:51:33;;;;;;;8.40;2.90;;;5.70;99.90;;;;;;5030304;28;20381;-49
2023/04/03 06:54:00;;;;;;;9.02;2.90;;;5.80;99.90;;;;;;5033536;28;20044;-47
2023/04/03 06:56:26;;;;;;;9.60;3.05;;;5.90;99.90;;;;;;5028920;28;20022;-53
2023/04/03 06:58:54;;;;;;;8.38;3.05;;;6.10;99.90;;;;;;5028834;28;20033;-44
2023/04/03 07:01:20;;;;;;;8.10;2.75;;;6.30;99.90;;;;;;5028292;28;20030;-53
2023/04/03 07:03:47;;;;;;;10.80;3.55;;;6.40;99.90;;;;;;5034838;28;20396;-53
2023/04/03 07:06:15;;;;;;;10.77;3.03;;;6.60;99.90;;;;;;5034852;28;20022;-42
2023/04/03 07:08:42;;;;;;;11.40;2.80;;;6.80;99.90;;;;;;5045786;28;20025;-49
2023/04/03 07:11:08;;;;;;;8.73;2.90;;;6.90;99.90;;;;;;5033207;28;20013;-48
2023/04/03 07:13:34;;;;;;;14.05;3.40;;;7.10;99.90;;;;;;5027366;28;20048;-59
2023/04/03 07:16:00;;;;;;;12.35;3.17;;;7.30;99.90;;;;;;5030277;28;20468;-45
2023/04/03 07:18:26;;;;;;;10.30;3.10;;;7.50;99.90;;;;;;5026886;28;20021;-54
2023/04/03 07:20:52;;;;;;;9.23;2.95;;;7.70;99.90;;;;;;5033061;28;20399;-43
2023/04/03 07:23:18;;;;;;;9.55;2.60;;;7.80;99.90;;;;;;5035109;28;20032;-51
2023/04/03 07:25:48;;;;;;;8.40;3.05;;;8.20;99.90;;;;;;5032817;28;20024;-44
2023/04/03 07:28:15;;;;;;;9.07;2.58;;;8.50;99.90;;;;;;5032916;28;20075;-48
2023/04/03 07:30:46;;;;;;;7.60;3.05;;;9.10;99.90;;;;;;5032875;28;20036;-49
2023/04/03 07:33:12;;;;;;;7.32;2.78;;;9.50;99.90;;;;;;5031398;28;20041;-49
2023/04/03 07:35:39;;;;;;;11.27;3.10;;;9.20;99.90;;;;;;5031475;28;20033;-48
2023/04/03 07:38:05;;;;;;;8.77;2.97;;;9.40;99.90;;;;;;5045346;28;20045;-47
2023/04/03 07:40:31;;;;;;;6.50;2.85;;;10.00;99.90;;;;;;5050128;28;20028;-43
2023/04/03 07:42:56;;;;;;;8.30;2.70;;;11.10;99.90;;;;;;5050437;28;20645;-43
2023/04/03 07:45:22;;;;;;;9.40;2.65;;;12.10;99.90;;;;;;5025367;28;20041;-42
2023/04/03 07:47:48;;;;;;;8.88;2.80;;;13.20;99.90;;;;;;5013448;28;20034;-47
2023/04/03 07:50:14;;;;;;;11.70;3.10;;;14.70;99.90;;;;;;5029811;28;20108;-45
2023/04/03 07:52:40;;;;;;;10.70;3.22;;;14.60;94.60;;;;;;5037520;28;20037;-44
2023/04/03 07:55:06;;;;;;;7.78;2.83;;;15.70;94.80;;;;;;5032725;28;20056;-45
2023/04/03 07:57:32;;;;;;;8.80;2.80;;;17.40;91.60;;;;;;5040971;28;20104;-50
2023/04/03 07:59:57;;;;;;;9.13;3.65;;;17.20;79.10;;;;;;5041710;28;20133;-43
2023/04/03 08:02:23;;;;;;;10.88;3.20;;;17.20;79.20;;;;;;5048595;28;20126;-48
2023/04/03 08:04:48;;;;;;;9.07;3.45;;;18.10;78.90;;;;;;5049482;28;20476;-48
2023/04/03 08:07:14;;;;;;;8.32;3.05;;;19.00;74.50;;;;;;5040965;28;20153;-51
2023/04/03 08:09:40;;;;;;;8.50;2.67;;;19.10;71.90;;;;;;5038498;28;20033;-48
2023/04/03 08:12:05;;;;;;;10.27;2.95;;;20.10;66.80;;;;;;5035697;28;20034;-50
2023/04/03 08:14:34;;;;;;;11.65;3.38;;;20.40;66.20;;;;;;5037250;28;20367;-50
2023/04/03 08:17:00;;;;;;;9.77;2.80;;;20.90;62.70;;;;;;5032225;28;20676;-47
2023/04/03 08:19:26;;;;;;;9.15;2.83;;;20.90;58.00;;;;;;5031978;28;20128;-50
2023/04/03 08:21:53;;;;;;;9.13;2.90;;;19.30;61.70;;;;;;5030927;28;20477;-49
2023/04/03 08:24:18;;;;;;;9.57;2.70;;;17.70;62.20;;;;;;5032295;28;20059;-52
2023/04/03 08:26:44;;;;;;;5.53;2.42;;;17.50;67.40;;;;;;5031882;28;20126;-47
2023/04/03 08:29:09;;;;;;;13.15;3.22;;;17.40;68.60;;;;;;5031445;28;20025;-48
2023/04/03 08:31:35;;;;;;;10.45;3.50;;;17.80;65.70;;;;;;5031303;28;20053;-52
2023/04/03 08:34:01;;;;;;;12.82;3.33;;;19.30;65.10;;;;;;5031734;28;20424;-44
2023/04/03 08:36:29;;;;;;;9.57;3.47;;;19.40;61.20;;;;;;5031505;28;20049;-50
2023/04/03 08:38:56;;;;;;;7.75;3.38;;;18.70;62.10;;;;;;5030813;28;20045;-50
2023/04/03 08:41:30;;;;;;;7.65;3.30;;;18.00;60.10;;;;;;5031741;28;20465;-47
2023/04/03 08:44:19;;;;;;;7.70;3.58;;;16.90;63.50;;;;;;5031824;28;20116;-47
2023/04/03 08:47:06;;;;;;;8.35;3.40;;;15.80;63.80;;;;;;5031803;28;20017;-50
2023/04/03 08:49:48;;;;;;;7.85;3.47;;;15.20;68.40;;;;;;5031786;28;20026;-55
2023/04/03 08:52:25;;;;;;;10.63;3.72;;;15.10;69.30;;;;;;5045709;28;20025;-53
2023/04/03 08:54:55;;;;;;;9.75;3.67;;;14.40;72.20;;;;;;5048703;28;20108;-50
2023/04/03 08:57:28;;;;;;;11.32;4.32;;;14.60;71.50;;;;;;5026596;28;20029;-49
2023/04/03 08:59:54;;;;;;;11.05;3.95;;;15.50;69.80;;;;;;5031214;28;20088;-49
2023/04/03 09:02:33;;;;;;;8.25;3.90;;;16.20;66.00;;;;;;5031403;28;20029;-48
2023/04/03 09:04:59;;;;;;;9.07;3.85;;;17.00;67.80;;;;;;5030391;28;20095;-45
2023/04/03 09:07:50;;;;;;;6.53;3.70;;;16.70;66.10;;;;;;5031795;28;20423;-49
2023/04/03 09:10:31;;;;;;;9.05;4.25;;;16.50;69.90;;;;;;5028178;28;20033;-46
2023/04/03 09:13:17;;;;;;;6.65;3.70;;;16.70;67.70;;;;;;5030971;28;20096;-43
2023/04/03 09:15:44;;;;;;;7.70;4.68;;;18.40;65.40;;;;;;5029517;28;20030;-45
2023/04/03 09:18:19;;;;;;;7.80;4.15;;;19.00;61.40;;;;;;5030358;28;20025;-43
2023/04/03 09:21:27;;;;;;;9.32;4.72;;;19.50;61.90;;;;;;5030083;28;20067;-49
2023/04/03 09:23:57;;;;;;;9.77;4.18;;;18.80;59.50;;;;;;5029031;28;20045;-49
2023/04/03 09:26:28;;;;;;;7.88;4.82;;;17.40;60.70;;;;;;5028787;28;20072;-51
2023/04/03 09:28:58;;;;;;;9.75;5.25;;;15.70;63.60;;;;;;5029864;28;20045;-44
2023/04/03 09:31:27;;;;;;;9.35;4.78;;;14.50;66.30;;;;;;5030845;28;20025;-44
2023/04/03 09:33:58;;;;;;;13.07;4.72;;;13.70;69.70;;;;;;5029778;28;20515;-44
2023/04/03 09:36:47;;;;;;;9.85;5.63;;;12.90;72.10;;;;;;5028914;28;20025;-51
2023/04/03 09:39:18;;;;;;;8.27;4.97;;;12.20;73.00;;;;;;5016922;28;20060;-48
2023/04/03 09:42:15;;;;;;;8.75;5.60;;;12.30;74.00;;;;;;5028757;28;20497;-47
2023/04/03 09:44:41;;;;;;;10.30;5.75;;;11.90;72.60;;;;;;5028662;28;20033;-54
2023/04/03 09:47:27;;;;;;;8.93;5.15;;;12.00;75.20;;;;;;5028602;28;20519;-47
2023/04/03 09:50:12;;;;;;;11.63;5.50;;;12.20;72.50;;;;;;5030570;28;20033;-51
2023/04/03 09:52:39;;;;;;;9.52;5.43;;;12.00;73.40;;;;;;5048415;28;20553;-48
2023/04/03 09:55:18;;;;;;;10.88;5.80;;;11.90;74.70;;;;;;5050629;28;20043;-48
2023/04/03 09:57:45;;;;;;;10.23;5.50;;;12.30;74.90;;;;;;5050500;28;20028;-49
2023/04/03 10:00:33;;;;;;;9.70;5.05;;;12.10;73.90;;;;;;5036596;28;20075;-50
2023/04/03 10:03:00;;;;;;;10.70;5.18;;;11.80;72.80;;;;;;5048974;28;20044;-45
2023/04/03 10:05:38;;;;;;;7.95;5.55;;;11.70;75.10;;;;;;5050631;28;20100;-55
2023/04/03 10:08:13;;;;;;;9.40;5.17;;;11.80;76.30;;;;;;5050543;28;20025;-51
2023/04/03 10:11:09;;;;;;;10.68;5.40;;;12.10;74.10;;;;;;5050687;28;20039;-48
2023/04/03 10:13:36;;;;;;;8.75;5.45;;;12.90;73.20;;;;;;5050471;28;20029;-47
2023/04/03 10:16:12;;;;;;;9.82;5.63;;;14.80;70.90;;;;;;5050396;28;20100;-46
2023/04/03 10:18:47;;;;;;;9.05;5.20;;;16.60;63.60;;;;;;5050512;28;20041;-52
2023/04/03 10:21:19;;;;;;;8.65;5.30;;;18.90;61.40;;;;;;5050321;28;20029;-51
2023/04/03 10:23:48;;;;;;;6.78;5.07;;;19.40;56.30;;;;;;5050509;28;20036;-52
2023/04/03 10:26:38;;;;;;;7.38;4.95;;;18.70;54.80;;;;;;5050235;28;20021;-52
2023/04/03 10:29:34;;;;;;;6.88;4.50;;;17.20;57.00;;;;;;5045143;28;20611;-48
2023/04/03 10:32:29;;;;;;;8.23;3.63;;;16.00;59.00;;;;;;5054257;28;20037;-54
2023/04/03 10:35:17;;;;;;;7.28;3.20;;;16.30;58.60;;;;;;5052560;28;20107;-51
2023/04/03 10:38:16;;;;;;;5.63;3.40;;;18.00;54.50;;;;;;5054121;28;20061;-47
2023/04/03 10:41:07;;;;;;;5.28;3.13;;;17.80;55.60;;;;;;5054044;28;20064;-45
2023/04/03 10:43:35;;;;;;;5.75;3.30;;;19.70;53.80;;;;;;5053917;28;20032;-53
2023/04/03 10:46:27;;;;;;;6.43;3.28;;;20.60;51.80;;;;;;5054081;28;20104;-46
2023/04/03 10:49:01;;;;;;;5.47;3.42;;;21.50;48.50;;;;;;5053971;28;20021;-50
2023/04/03 10:51:48;;;;;;;5.97;3.10;;;22.40;47.80;;;;;;5053887;28;20386;-50
2023/04/03 10:54:39;;;;;;;6.45;2.80;;;24.90;50.20;;;;;;5053834;28;20048;-51
2023/04/03 10:57:09;;;;;;;4.03;2.17;;;23.60;44.10;;;;;;5053826;28;20032;-53
2023/04/03 10:59:45;;;;;;;4.20;2.05;;;20.40;45.00;;;;;;5040333;28;20088;-49
2023/04/03 11:02:17;;;;;;;4.65;2.10;;;19.40;47.40;;;;;;5046577;28;20036;-52
2023/04/03 11:04:47;;;;;;;5.35;2.00;;;18.30;49.10;;;;;;5053719;28;20029;-48
2023/04/03 11:07:26;;;;;;;4.85;2.15;;;18.30;48.80;;;;;;5053575;28;20522;-51
2023/04/03 11:09:57;;;;;;;4.43;2.17;;;18.60;48.10;;;;;;5053515;28;20094;-47
2023/04/03 11:12:40;;;;;;;4.72;2.33;;;19.50;48.40;;;;;;5053499;28;20535;-46
2023/04/03 11:15:15;;;;;;;4.97;2.45;;;19.70;47.90;;;;;;5053566;28;20143;-51
2023/04/03 11:17:50;;;;;;;5.22;2.60;;;19.20;46.80;;;;;;5053428;28;20029;-52
2023/04/03 11:20:33;;;;;;;5.00;2.30;;;18.80;47.70;;;;;;5053331;28;20491;-44
2023/04/03 11:23:23;;;;;;;6.00;2.08;;;20.70;48.40;;;;;;5053585;28;20056;-55
2023/04/03 11:25:53;;;;;;;5.28;2.33;;;19.90;47.10;;;;;;5053305;28;20451;-47
2023/04/03 11:28:18;;;;;;;5.68;2.58;;;19.40;50.60;;;;;;5050406;28;20029;-50
2023/04/03 11:31:01;;;;;;;4.15;2.17;;;19.80;48.00;;;;;;5044101;28;20025;-55
2023/04/03 11:33:39;;;;;;;4.97;2.10;;;21.00;47.80;;;;;;5053053;28;20025;-44
2023/04/03 11:36:19;;;;;;;6.53;2.30;;;22.40;44.30;;;;;;5053422;28;20029;-48
2023/04/03 11:38:47;;;;;;;4.55;2.30;;;21.30;43.90;;;;;;5051924;28;20041;-50
2023/04/03 11:41:13;;;;;;;5.07;2.30;;;20.70;45.30;;;;;;5053096;28;20056;-45
2023/04/03 11:44:13;;;;;;;5.93;2.20;;;20.40;47.90;;;;;;5051574;28;20033;-52
2023/04/03 11:46:51;;;;;;;4.32;1.90;;;20.60;47.70;;;;;;5051766;28;20033;-48
2023/04/03 11:49:56;;;;;;;3.50;1.57;;;20.60;44.40;;;;;;5052973;28;20032;-50
2023/04/03 11:52:40;;;;;;;5.13;1.88;;;20.30;46.70;;;;;;5052716;28;20021;-49
2023/04/03 11:55:23;;;;;;;3.70;1.75;;;22.00;46.40;;;;;;5052772;28;20487;-48
2023/04/03 11:57:58;;;;;;;4.05;1.85;;;21.90;44.50;;;;;;5051628;28;20499;-44
2023/04/03 12:00:46;;;;;;;2.95;1.77;;;22.00;43.20;;;;;;5038954;28;20523;-45
2023/04/03 12:03:26;;;;;;;3.53;1.37;;;20.00;43.30;;;;;;5026530;28;20021;-44
2023/04/03 12:05:52;;;;;;;4.80;1.65;;;20.00;45.60;;;;;;5052581;28;20147;-54
2023/04/03 12:08:33;;;;;;;4.03;1.58;;;18.60;46.70;;;;;;5052538;28;20035;-46
2023/04/03 12:11:10;;;;;;;4.97;1.80;;;19.40;45.20;;;;;;5052480;28;20159;-51
2023/04/03 12:13:57;;;;;;;4.50;1.63;;;19.80;44.90;;;;;;5052386;28;20047;-50
2023/04/03 12:16:30;;;;;;;6.53;2.10;;;18.20;45.80;;;;;;5052211;28;20036;-48
2023/04/03 12:18:59;;;;;;;6.43;1.45;;;18.30;45.90;;;;;;5052330;28;20434;-52
2023/04/03 12:21:46;;;;;;;;;;;20.00;47.00;;;;;;5038379;28;20057;-46
2023/04/03 12:24:20;;;;;;;4.97;2.17;;;20.80;43.70;;;;;;5048140;28;19909;-51
2023/04/03 12:27:18;;;;;;;4.63;1.58;;;21.10;44.40;;;;;;5052030;28;20028;-44
2023/04/03 12:30:05;;;;;;;6.03;1.58;;;21.80;42.30;;;;;;5052053;28;20032;-43
2023/04/03 12:32:48;;;;;;;4.60;1.83;;;20.40;43.80;;;;;;5042711;28;20025;-45
2023/04/03 12:35:35;;;;;;;4.15;1.70;;;21.40;43.30;;;;;;5041291;28;20042;-45
2023/04/03 12:38:18;;;;;;;7.18;2.30;;;22.20;45.40;;;;;;5035394;28;20049;-47
2023/04/03 12:40:58;;;;;;;5.28;1.80;;;22.60;43.10;;;;;;5027851;28;20453;-47
2023/04/03 12:43:55;;;;;;;3.95;1.90;;;22.30;43.80;;;;;;5035450;28;20021;-44
2023/04/03 12:46:22;;;;;;;5.55;1.90;;;21.40;43.00;;;;;;5051992;28;20119;-51
2023/04/03 12:48:51;;;;;;;6.28;2.20;;;20.60;44.60;;;;;;5051443;28;20028;-45
2023/04/03 12:51:28;;;;;;;5.68;2.00;;;20.20;47.70;;;;;;5051566;28;20558;-46
2023/04/03 12:54:02;;;;;;;8.00;2.20;;;20.60;46.60;;;;;;5051373;28;20037;-51
2023/04/03 12:56:30;;;;;;;3.78;1.90;;;21.00;44.20;;;;;;5051353;28;20021;-53
2023/04/03 12:59:15;;;;;;;3.67;1.90;;;20.80;48.10;;;;;;5051566;28;20075;-44
2023/04/03 13:01:40;;;;;;;6.05;1.83;;;21.90;46.30;;;;;;5051510;28;20021;-48
2023/04/03 13:04:07;;;;;;;8.23;2.03;;;22.00;43.20;;;;;;5051360;28;20480;-51
2023/04/03 13:06:38;;;;;;;7.63;2.13;;;21.50;43.80;;;;;;5051298;28;20475;-50